sensor_id;sensor_type;location;lat;lon;timestamp;P1;durP1;ratioP1;P2;durP2;ratioP2
16626;SDS011;8427;52.204;7.202;2023-03-01T00:01:16;40.00;;;37.00;;
16626;SDS011;8427;52.204;7.202;2023-03-01T00:03:45;39.75;;;36.85;;
16626;SDS011;8427;52.204;7.202;2023-03-01T00:06:13;40.33;;;36.92;;
16626;SDS011;8427;52.204;7.202;2023-03-01T00:08:42;42.70;;;38.20;;
16626;SDS011;8427;52.204;7.202;2023-03-01T00:11:11;40.20;;;37.10;;
16626;SDS011;8427;52.204;7.202;2023-03-01T00:13:41;40.30;;;37.10;;
16626;SDS011;8427;52.204;7.202;2023-03-01T00:16:11;41.30;;;37.70;;
16626;SDS011;8427;52.204;7.202;2023-03-01T00:18:42;62.57;;;39.80;;
16626;SDS011;8427;52.204;7.202;2023-03-01T00:21:10;40.50;;;36.90;;
16626;SDS011;8427;52.204;7.202;2023-03-01T00:23:38;40.10;;;36.90;;
16626;SDS011;8427;52.204;7.202;2023-03-01T00:26:07;40.75;;;37.30;;
16626;SDS011;8427;52.204;7.202;2023-03-01T00:28:36;49.92;;;37.90;;
16626;SDS011;8427;52.204;7.202;2023-03-01T00:31:04;40.20;;;36.80;;
16626;SDS011;8427;52.204;7.202;2023-03-01T00:33:35;39.70;;;36.50;;
16626;SDS011;8427;52.204;7.202;2023-03-01T00:36:03;41.40;;;37.60;;
16626;SDS011;8427;52.204;7.202;2023-03-01T00:38:34;40.85;;;37.28;;
16626;SDS011;8427;52.204;7.202;2023-03-01T00:41:04;41.20;;;37.50;;
16626;SDS011;8427;52.204;7.202;2023-03-01T00:43:32;40.70;;;37.30;;
16626;SDS011;8427;52.204;7.202;2023-03-01T00:46:02;41.07;;;37.50;;
16626;SDS011;8427;52.204;7.202;2023-03-01T00:48:32;41.10;;;37.35;;
16626;SDS011;8427;52.204;7.202;2023-03-01T00:51:05;40.47;;;37.38;;
16626;SDS011;8427;52.204;7.202;2023-03-01T00:53:34;39.90;;;37.05;;
16626;SDS011;8427;52.204;7.202;2023-03-01T00:56:03;39.70;;;36.75;;
16626;SDS011;8427;52.204;7.202;2023-03-01T00:58:32;39.55;;;36.70;;
16626;SDS011;8427;52.204;7.202;2023-03-01T01:01:06;39.50;;;36.70;;
16626;SDS011;8427;52.204;7.202;2023-03-01T01:03:43;40.33;;;37.03;;
16626;SDS011;8427;52.204;7.202;2023-03-01T01:06:15;40.27;;;36.97;;
16626;SDS011;8427;52.204;7.202;2023-03-01T01:08:44;42.03;;;37.88;;
16626;SDS011;8427;52.204;7.202;2023-03-01T01:11:12;40.25;;;36.97;;
16626;SDS011;8427;52.204;7.202;2023-03-01T01:13:40;42.50;;;38.10;;
16626;SDS011;8427;52.204;7.202;2023-03-01T01:16:09;39.45;;;36.35;;
16626;SDS011;8427;52.204;7.202;2023-03-01T01:18:37;38.00;;;35.10;;
16626;SDS011;8427;52.204;7.202;2023-03-01T01:21:06;38.53;;;35.58;;
16626;SDS011;8427;52.204;7.202;2023-03-01T01:23:36;39.20;;;36.40;;
16626;SDS011;8427;52.204;7.202;2023-03-01T01:26:05;40.80;;;37.10;;
16626;SDS011;8427;52.204;7.202;2023-03-01T01:28:33;40.07;;;36.10;;
16626;SDS011;8427;52.204;7.202;2023-03-01T01:31:02;38.85;;;35.90;;
16626;SDS011;8427;52.204;7.202;2023-03-01T01:33:30;39.10;;;36.00;;
16626;SDS011;8427;52.204;7.202;2023-03-01T01:35:58;40.67;;;37.10;;
16626;SDS011;8427;52.204;7.202;2023-03-01T01:38:26;40.40;;;36.90;;
16626;SDS011;8427;52.204;7.202;2023-03-01T01:40:55;42.17;;;37.70;;
16626;SDS011;8427;52.204;7.202;2023-03-01T01:43:24;40.70;;;37.20;;
16626;SDS011;8427;52.204;7.202;2023-03-01T01:45:54;40.08;;;37.00;;
16626;SDS011;8427;52.204;7.202;2023-03-01T01:48:24;40.92;;;37.13;;
16626;SDS011;8427;52.204;7.202;2023-03-01T01:51:06;41.70;;;37.50;;
16626;SDS011;8427;52.204;7.202;2023-03-01T01:53:37;40.45;;;36.95;;
16626;SDS011;8427;52.204;7.202;2023-03-01T01:56:08;40.60;;;37.03;;
16626;SDS011;8427;52.204;7.202;2023-03-01T01:58:40;55.10;;;36.60;;
16626;SDS011;8427;52.204;7.202;2023-03-01T02:01:09;39.58;;;36.45;;
16626;SDS011;8427;52.204;7.202;2023-03-01T02:03:38;40.50;;;37.00;;
16626;SDS011;8427;52.204;7.202;2023-03-01T02:06:12;39.30;;;36.35;;
16626;SDS011;8427;52.204;7.202;2023-03-01T02:08:45;56.13;;;37.97;;
16626;SDS011;8427;52.204;7.202;2023-03-01T02:11:17;38.35;;;35.10;;
16626;SDS011;8427;52.204;7.202;2023-03-01T02:13:46;39.40;;;36.00;;
16626;SDS011;8427;52.204;7.202;2023-03-01T02:16:15;39.85;;;36.60;;
16626;SDS011;8427;52.204;7.202;2023-03-01T02:18:43;41.10;;;36.70;;
16626;SDS011;8427;52.204;7.202;2023-03-01T02:21:15;40.00;;;36.70;;
16626;SDS011;8427;52.204;7.202;2023-03-01T02:23:53;41.13;;;37.20;;
16626;SDS011;8427;52.204;7.202;2023-03-01T02:26:25;40.67;;;37.10;;
16626;SDS011;8427;52.204;7.202;2023-03-01T02:29:04;36.17;;;33.93;;
16626;SDS011;8427;52.204;7.202;2023-03-01T02:31:32;38.13;;;35.50;;
16626;SDS011;8427;52.204;7.202;2023-03-01T02:34:11;42.30;;;35.67;;
16626;SDS011;8427;52.204;7.202;2023-03-01T02:36:42;37.20;;;33.80;;
16626;SDS011;8427;52.204;7.202;2023-03-01T02:39:14;49.35;;;36.45;;
16626;SDS011;8427;52.204;7.202;2023-03-01T02:41:45;37.87;;;35.17;;
16626;SDS011;8427;52.204;7.202;2023-03-01T02:44:16;37.90;;;34.77;;
16626;SDS011;8427;52.204;7.202;2023-03-01T02:46:45;39.00;;;35.90;;
16626;SDS011;8427;52.204;7.202;2023-03-01T02:49:22;58.65;;;38.40;;
16626;SDS011;8427;52.204;7.202;2023-03-01T02:51:56;38.72;;;35.85;;
16626;SDS011;8427;52.204;7.202;2023-03-01T02:54:36;39.90;;;36.40;;
16626;SDS011;8427;52.204;7.202;2023-03-01T02:57:08;40.35;;;36.50;;
16626;SDS011;8427;52.204;7.202;2023-03-01T02:59:38;36.03;;;33.80;;
16626;SDS011;8427;52.204;7.202;2023-03-01T03:02:18;38.60;;;35.80;;
16626;SDS011;8427;52.204;7.202;2023-03-01T03:05:03;36.58;;;34.05;;
16626;SDS011;8427;52.204;7.202;2023-03-01T03:07:34;35.97;;;33.30;;
16626;SDS011;8427;52.204;7.202;2023-03-01T03:10:04;36.05;;;32.80;;
16626;SDS011;8427;52.204;7.202;2023-03-01T03:12:33;38.33;;;35.60;;
16626;SDS011;8427;52.204;7.202;2023-03-01T03:15:03;38.55;;;35.85;;
16626;SDS011;8427;52.204;7.202;2023-03-01T03:17:35;38.65;;;36.10;;
16626;SDS011;8427;52.204;7.202;2023-03-01T03:20:04;39.38;;;36.47;;
16626;SDS011;8427;52.204;7.202;2023-03-01T03:22:36;38.92;;;36.22;;
16626;SDS011;8427;52.204;7.202;2023-03-01T03:25:05;41.47;;;37.20;;
16626;SDS011;8427;52.204;7.202;2023-03-01T03:27:36;39.17;;;36.27;;
16626;SDS011;8427;52.204;7.202;2023-03-01T03:30:07;39.17;;;36.38;;
16626;SDS011;8427;52.204;7.202;2023-03-01T03:32:39;40.00;;;36.60;;
16626;SDS011;8427;52.204;7.202;2023-03-01T03:35:08;40.45;;;37.03;;
16626;SDS011;8427;52.204;7.202;2023-03-01T03:37:37;39.38;;;36.45;;
16626;SDS011;8427;52.204;7.202;2023-03-01T03:40:23;41.00;;;37.30;;
16626;SDS011;8427;52.204;7.202;2023-03-01T03:42:51;39.60;;;36.10;;
16626;SDS011;8427;52.204;7.202;2023-03-01T03:45:20;40.73;;;37.17;;
16626;SDS011;8427;52.204;7.202;2023-03-01T03:47:48;40.20;;;36.85;;
16626;SDS011;8427;52.204;7.202;2023-03-01T03:50:16;40.70;;;37.03;;
16626;SDS011;8427;52.204;7.202;2023-03-01T03:52:45;39.70;;;36.80;;
16626;SDS011;8427;52.204;7.202;2023-03-01T03:55:12;40.15;;;36.90;;
16626;SDS011;8427;52.204;7.202;2023-03-01T03:57:45;39.83;;;36.80;;
16626;SDS011;8427;52.204;7.202;2023-03-01T04:00:18;40.75;;;37.30;;
16626;SDS011;8427;52.204;7.202;2023-03-01T04:02:50;39.90;;;36.80;;
16626;SDS011;8427;52.204;7.202;2023-03-01T04:05:22;41.10;;;37.40;;
16626;SDS011;8427;52.204;7.202;2023-03-01T04:07:51;40.67;;;37.20;;
16626;SDS011;8427;52.204;7.202;2023-03-01T04:10:27;40.13;;;36.80;;
16626;SDS011;8427;52.204;7.202;2023-03-01T04:12:55;39.78;;;36.67;;
16626;SDS011;8427;52.204;7.202;2023-03-01T04:15:25;39.63;;;36.72;;
16626;SDS011;8427;52.204;7.202;2023-03-01T04:17:54;41.30;;;37.50;;
16626;SDS011;8427;52.204;7.202;2023-03-01T04:20:23;41.10;;;37.40;;
16626;SDS011;8427;52.204;7.202;2023-03-01T04:22:56;40.58;;;37.17;;
16626;SDS011;8427;52.204;7.202;2023-03-01T04:25:26;40.63;;;37.15;;
16626;SDS011;8427;52.204;7.202;2023-03-01T04:27:54;41.15;;;37.55;;
16626;SDS011;8427;52.204;7.202;2023-03-01T04:30:21;40.50;;;37.10;;
16626;SDS011;8427;52.204;7.202;2023-03-01T04:32:52;40.33;;;37.00;;
16626;SDS011;8427;52.204;7.202;2023-03-01T04:35:20;41.22;;;37.35;;
16626;SDS011;8427;52.204;7.202;2023-03-01T04:37:49;42.17;;;37.75;;
16626;SDS011;8427;52.204;7.202;2023-03-01T04:40:17;40.40;;;37.10;;
16626;SDS011;8427;52.204;7.202;2023-03-01T04:42:44;40.58;;;37.20;;
16626;SDS011;8427;52.204;7.202;2023-03-01T04:45:13;41.40;;;37.45;;
16626;SDS011;8427;52.204;7.202;2023-03-01T04:47:42;41.17;;;37.30;;
16626;SDS011;8427;52.204;7.202;2023-03-01T04:50:14;57.10;;;39.83;;
16626;SDS011;8427;52.204;7.202;2023-03-01T04:52:43;39.58;;;36.47;;
16626;SDS011;8427;52.204;7.202;2023-03-01T04:55:12;40.58;;;37.03;;
16626;SDS011;8427;52.204;7.202;2023-03-01T04:57:40;40.95;;;37.05;;
16626;SDS011;8427;52.204;7.202;2023-03-01T05:00:10;41.05;;;37.33;;
16626;SDS011;8427;52.204;7.202;2023-03-01T05:02:47;41.23;;;37.30;;
16626;SDS011;8427;52.204;7.202;2023-03-01T05:05:21;40.05;;;36.75;;
16626;SDS011;8427;52.204;7.202;2023-03-01T05:07:54;39.03;;;36.22;;
16626;SDS011;8427;52.204;7.202;2023-03-01T05:10:23;39.22;;;36.03;;
16626;SDS011;8427;52.204;7.202;2023-03-01T05:12:52;39.75;;;36.30;;
16626;SDS011;8427;52.204;7.202;2023-03-01T05:15:20;39.33;;;36.25;;
16626;SDS011;8427;52.204;7.202;2023-03-01T05:17:51;40.53;;;37.10;;
16626;SDS011;8427;52.204;7.202;2023-03-01T05:20:21;41.28;;;37.47;;
16626;SDS011;8427;52.204;7.202;2023-03-01T05:22:50;38.03;;;34.63;;
16626;SDS011;8427;52.204;7.202;2023-03-01T05:25:18;36.92;;;33.55;;
16626;SDS011;8427;52.204;7.202;2023-03-01T05:27:47;36.57;;;33.80;;
16626;SDS011;8427;52.204;7.202;2023-03-01T05:30:15;36.50;;;33.70;;
16626;SDS011;8427;52.204;7.202;2023-03-01T05:32:44;36.63;;;33.90;;
16626;SDS011;8427;52.204;7.202;2023-03-01T05:35:14;36.33;;;33.17;;
16626;SDS011;8427;52.204;7.202;2023-03-01T05:37:46;35.88;;;33.15;;
16626;SDS011;8427;52.204;7.202;2023-03-01T05:40:16;33.00;;;31.10;;
16626;SDS011;8427;52.204;7.202;2023-03-01T05:42:47;36.25;;;33.70;;
16626;SDS011;8427;52.204;7.202;2023-03-01T05:45:16;39.00;;;36.00;;
16626;SDS011;8427;52.204;7.202;2023-03-01T05:47:46;39.50;;;35.80;;
16626;SDS011;8427;52.204;7.202;2023-03-01T05:50:16;39.53;;;36.40;;
16626;SDS011;8427;52.204;7.202;2023-03-01T05:52:47;41.30;;;37.30;;
16626;SDS011;8427;52.204;7.202;2023-03-01T05:55:17;42.10;;;37.70;;
16626;SDS011;8427;52.204;7.202;2023-03-01T05:57:47;42.67;;;37.77;;
16626;SDS011;8427;52.204;7.202;2023-03-01T06:00:16;39.25;;;36.17;;
16626;SDS011;8427;52.204;7.202;2023-03-01T06:02:46;38.70;;;34.97;;
16626;SDS011;8427;52.204;7.202;2023-03-01T06:05:14;34.25;;;32.35;;
16626;SDS011;8427;52.204;7.202;2023-03-01T06:07:42;51.50;;;37.95;;
16626;SDS011;8427;52.204;7.202;2023-03-01T06:10:12;40.10;;;36.53;;
16626;SDS011;8427;52.204;7.202;2023-03-01T06:12:41;36.47;;;34.08;;
16626;SDS011;8427;52.204;7.202;2023-03-01T06:15:10;33.95;;;32.13;;
16626;SDS011;8427;52.204;7.202;2023-03-01T06:17:40;58.78;;;35.80;;
16626;SDS011;8427;52.204;7.202;2023-03-01T06:20:10;37.33;;;34.53;;
16626;SDS011;8427;52.204;7.202;2023-03-01T06:22:40;36.05;;;32.95;;
16626;SDS011;8427;52.204;7.202;2023-03-01T06:25:09;37.27;;;33.50;;
16626;SDS011;8427;52.204;7.202;2023-03-01T06:27:40;57.67;;;35.13;;
16626;SDS011;8427;52.204;7.202;2023-03-01T06:30:09;33.45;;;30.98;;
16626;SDS011;8427;52.204;7.202;2023-03-01T06:32:40;37.10;;;34.20;;
16626;SDS011;8427;52.204;7.202;2023-03-01T06:35:09;37.75;;;35.15;;
16626;SDS011;8427;52.204;7.202;2023-03-01T06:37:37;34.03;;;32.13;;
16626;SDS011;8427;52.204;7.202;2023-03-01T06:40:07;38.28;;;35.47;;
16626;SDS011;8427;52.204;7.202;2023-03-01T06:42:38;39.10;;;36.15;;
16626;SDS011;8427;52.204;7.202;2023-03-01T06:45:11;34.80;;;32.70;;
16626;SDS011;8427;52.204;7.202;2023-03-01T06:47:38;37.70;;;34.70;;
16626;SDS011;8427;52.204;7.202;2023-03-01T06:50:07;33.83;;;32.10;;
16626;SDS011;8427;52.204;7.202;2023-03-01T06:52:36;32.40;;;30.95;;
16626;SDS011;8427;52.204;7.202;2023-03-01T06:55:04;32.15;;;30.65;;
16626;SDS011;8427;52.204;7.202;2023-03-01T06:57:33;33.28;;;31.17;;
16626;SDS011;8427;52.204;7.202;2023-03-01T07:00:02;36.10;;;33.30;;
16626;SDS011;8427;52.204;7.202;2023-03-01T07:02:31;34.22;;;31.83;;
16626;SDS011;8427;52.204;7.202;2023-03-01T07:04:58;34.17;;;32.08;;
16626;SDS011;8427;52.204;7.202;2023-03-01T07:07:26;32.20;;;30.70;;
16626;SDS011;8427;52.204;7.202;2023-03-01T07:09:54;32.92;;;31.38;;
16626;SDS011;8427;52.204;7.202;2023-03-01T07:12:22;31.83;;;30.30;;
16626;SDS011;8427;52.204;7.202;2023-03-01T07:14:50;32.00;;;30.60;;
16626;SDS011;8427;52.204;7.202;2023-03-01T07:17:19;33.15;;;31.25;;
16626;SDS011;8427;52.204;7.202;2023-03-01T07:19:47;32.25;;;30.63;;
16626;SDS011;8427;52.204;7.202;2023-03-01T07:22:15;32.80;;;31.00;;
16626;SDS011;8427;52.204;7.202;2023-03-01T07:24:43;32.42;;;30.85;;
16626;SDS011;8427;52.204;7.202;2023-03-01T07:27:10;32.05;;;30.33;;
16626;SDS011;8427;52.204;7.202;2023-03-01T07:29:38;32.45;;;30.77;;
16626;SDS011;8427;52.204;7.202;2023-03-01T07:32:06;33.78;;;31.40;;
16626;SDS011;8427;52.204;7.202;2023-03-01T07:34:36;33.60;;;31.30;;
16626;SDS011;8427;52.204;7.202;2023-03-01T07:37:04;35.50;;;32.75;;
16626;SDS011;8427;52.204;7.202;2023-03-01T07:39:31;34.13;;;31.45;;
16626;SDS011;8427;52.204;7.202;2023-03-01T07:41:59;32.58;;;30.88;;
16626;SDS011;8427;52.204;7.202;2023-03-01T07:44:27;34.97;;;32.55;;
16626;SDS011;8427;52.204;7.202;2023-03-01T07:46:55;33.85;;;31.95;;
16626;SDS011;8427;52.204;7.202;2023-03-01T07:49:24;40.05;;;35.95;;
16626;SDS011;8427;52.204;7.202;2023-03-01T07:51:54;34.97;;;33.22;;
16626;SDS011;8427;52.204;7.202;2023-03-01T07:54:22;36.50;;;34.30;;
16626;SDS011;8427;52.204;7.202;2023-03-01T07:56:50;35.47;;;33.27;;
16626;SDS011;8427;52.204;7.202;2023-03-01T07:59:18;37.72;;;34.72;;
16626;SDS011;8427;52.204;7.202;2023-03-01T08:01:46;35.42;;;33.42;;
16626;SDS011;8427;52.204;7.202;2023-03-01T08:04:14;33.90;;;32.20;;
16626;SDS011;8427;52.204;7.202;2023-03-01T08:06:41;38.80;;;35.90;;
16626;SDS011;8427;52.204;7.202;2023-03-01T08:09:11;42.05;;;37.75;;
16626;SDS011;8427;52.204;7.202;2023-03-01T08:11:38;36.95;;;34.85;;
16626;SDS011;8427;52.204;7.202;2023-03-01T08:14:06;38.65;;;36.35;;
16626;SDS011;8427;52.204;7.202;2023-03-01T08:16:34;39.70;;;37.00;;
16626;SDS011;8427;52.204;7.202;2023-03-01T08:19:05;40.13;;;36.83;;
16626;SDS011;8427;52.204;7.202;2023-03-01T08:21:34;38.95;;;36.55;;
16626;SDS011;8427;52.204;7.202;2023-03-01T08:24:02;38.40;;;36.10;;
16626;SDS011;8427;52.204;7.202;2023-03-01T08:26:32;36.37;;;34.37;;
16626;SDS011;8427;52.204;7.202;2023-03-01T08:29:00;39.20;;;35.90;;
16626;SDS011;8427;52.204;7.202;2023-03-01T08:31:29;39.70;;;36.80;;
16626;SDS011;8427;52.204;7.202;2023-03-01T08:33:59;37.97;;;35.58;;
16626;SDS011;8427;52.204;7.202;2023-03-01T08:36:29;38.97;;;36.58;;
16626;SDS011;8427;52.204;7.202;2023-03-01T08:38:59;41.20;;;37.80;;
16626;SDS011;8427;52.204;7.202;2023-03-01T08:41:27;39.35;;;36.80;;
16626;SDS011;8427;52.204;7.202;2023-03-01T08:43:56;40.10;;;37.30;;
16626;SDS011;8427;52.204;7.202;2023-03-01T08:46:26;41.10;;;37.88;;
16626;SDS011;8427;52.204;7.202;2023-03-01T08:48:53;43.60;;;39.20;;
16626;SDS011;8427;52.204;7.202;2023-03-01T08:51:22;37.95;;;35.55;;
16626;SDS011;8427;52.204;7.202;2023-03-01T08:53:50;39.33;;;36.53;;
16626;SDS011;8427;52.204;7.202;2023-03-01T08:56:18;39.70;;;37.00;;
16626;SDS011;8427;52.204;7.202;2023-03-01T08:58:47;42.70;;;38.70;;
16626;SDS011;8427;52.204;7.202;2023-03-01T09:01:17;39.60;;;37.00;;
16626;SDS011;8427;52.204;7.202;2023-03-01T09:03:46;40.38;;;37.58;;
16626;SDS011;8427;52.204;7.202;2023-03-01T09:06:14;40.20;;;37.40;;
16626;SDS011;8427;52.204;7.202;2023-03-01T09:08:43;48.33;;;38.53;;
16626;SDS011;8427;52.204;7.202;2023-03-01T09:11:13;39.60;;;37.00;;
16626;SDS011;8427;52.204;7.202;2023-03-01T09:13:43;39.70;;;37.00;;
16626;SDS011;8427;52.204;7.202;2023-03-01T09:16:11;41.30;;;38.20;;
16626;SDS011;8427;52.204;7.202;2023-03-01T09:18:42;40.97;;;38.15;;
16626;SDS011;8427;52.204;7.202;2023-03-01T09:21:11;42.17;;;38.78;;
16626;SDS011;8427;52.204;7.202;2023-03-01T09:23:41;40.60;;;37.90;;
16626;SDS011;8427;52.204;7.202;2023-03-01T09:26:11;40.78;;;37.97;;
16626;SDS011;8427;52.204;7.202;2023-03-01T09:28:42;41.45;;;38.33;;
16626;SDS011;8427;52.204;7.202;2023-03-01T09:31:11;41.80;;;38.60;;
16626;SDS011;8427;52.204;7.202;2023-03-01T09:33:40;41.20;;;38.30;;
16626;SDS011;8427;52.204;7.202;2023-03-01T09:36:11;41.80;;;38.70;;
16626;SDS011;8427;52.204;7.202;2023-03-01T09:38:40;41.22;;;38.35;;
16626;SDS011;8427;52.204;7.202;2023-03-01T09:41:09;41.08;;;38.30;;
16626;SDS011;8427;52.204;7.202;2023-03-01T09:43:43;42.63;;;39.15;;
16626;SDS011;8427;52.204;7.202;2023-03-01T09:46:14;41.58;;;38.50;;
16626;SDS011;8427;52.204;7.202;2023-03-01T09:48:44;43.10;;;39.40;;
16626;SDS011;8427;52.204;7.202;2023-03-01T09:51:18;41.97;;;38.88;;
16626;SDS011;8427;52.204;7.202;2023-03-01T09:53:50;42.55;;;39.15;;
16626;SDS011;8427;52.204;7.202;2023-03-01T09:56:21;42.30;;;39.00;;
16626;SDS011;8427;52.204;7.202;2023-03-01T09:58:55;45.70;;;40.80;;
16626;SDS011;8427;52.204;7.202;2023-03-01T10:01:30;42.20;;;39.00;;
16626;SDS011;8427;52.204;7.202;2023-03-01T10:04:08;43.40;;;39.70;;
16626;SDS011;8427;52.204;7.202;2023-03-01T10:06:46;42.42;;;39.22;;
16626;SDS011;8427;52.204;7.202;2023-03-01T10:09:23;45.80;;;40.90;;
16626;SDS011;8427;52.204;7.202;2023-03-01T10:11:52;41.50;;;38.70;;
16626;SDS011;8427;52.204;7.202;2023-03-01T10:14:27;42.45;;;39.20;;
16626;SDS011;8427;52.204;7.202;2023-03-01T10:16:59;42.30;;;39.10;;
16626;SDS011;8427;52.204;7.202;2023-03-01T10:19:32;43.30;;;39.57;;
16626;SDS011;8427;52.204;7.202;2023-03-01T10:22:10;41.58;;;38.75;;
16626;SDS011;8427;52.204;7.202;2023-03-01T10:24:42;42.10;;;39.00;;
16626;SDS011;8427;52.204;7.202;2023-03-01T10:27:11;42.50;;;39.30;;
16626;SDS011;8427;52.204;7.202;2023-03-01T10:29:46;42.30;;;39.10;;
16626;SDS011;8427;52.204;7.202;2023-03-01T10:32:17;42.50;;;39.30;;
16626;SDS011;8427;52.204;7.202;2023-03-01T10:34:51;42.53;;;39.33;;
16626;SDS011;8427;52.204;7.202;2023-03-01T10:37:20;41.33;;;38.53;;
16626;SDS011;8427;52.204;7.202;2023-03-01T10:39:54;42.17;;;39.20;;
16626;SDS011;8427;52.204;7.202;2023-03-01T10:42:25;42.45;;;39.20;;
16626;SDS011;8427;52.204;7.202;2023-03-01T10:44:56;42.35;;;39.30;;
16626;SDS011;8427;52.204;7.202;2023-03-01T10:47:25;42.80;;;39.60;;
16626;SDS011;8427;52.204;7.202;2023-03-01T10:49:57;42.53;;;39.33;;
16626;SDS011;8427;52.204;7.202;2023-03-01T10:52:31;46.40;;;41.45;;
16626;SDS011;8427;52.204;7.202;2023-03-01T10:55:01;45.55;;;40.95;;
16626;SDS011;8427;52.204;7.202;2023-03-01T10:57:36;43.42;;;39.80;;
16626;SDS011;8427;52.204;7.202;2023-03-01T11:03:09;44.20;;;40.40;;
16626;SDS011;8427;52.204;7.202;2023-03-01T11:05:54;44.30;;;40.30;;
16626;SDS011;8427;52.204;7.202;2023-03-01T11:08:32;43.30;;;39.80;;
16626;SDS011;8427;52.204;7.202;2023-03-01T11:14:03;43.30;;;39.80;;
16626;SDS011;8427;52.204;7.202;2023-03-01T11:16:57;42.88;;;39.58;;
16626;SDS011;8427;52.204;7.202;2023-03-01T11:19:27;48.05;;;41.90;;
16626;SDS011;8427;52.204;7.202;2023-03-01T11:21:59;43.22;;;39.90;;
16626;SDS011;8427;52.204;7.202;2023-03-01T11:24:39;43.00;;;39.70;;
16626;SDS011;8427;52.204;7.202;2023-03-01T11:27:16;43.03;;;39.72;;
16626;SDS011;8427;52.204;7.202;2023-03-01T11:29:47;44.10;;;40.30;;
16626;SDS011;8427;52.204;7.202;2023-03-01T11:32:21;43.40;;;40.00;;
16626;SDS011;8427;52.204;7.202;2023-03-01T11:34:53;42.78;;;39.58;;
16626;SDS011;8427;52.204;7.202;2023-03-01T11:37:32;42.70;;;39.50;;
16626;SDS011;8427;52.204;7.202;2023-03-01T11:40:05;45.20;;;40.95;;
16626;SDS011;8427;52.204;7.202;2023-03-01T11:42:50;44.83;;;40.73;;
16626;SDS011;8427;52.204;7.202;2023-03-01T11:45:26;43.70;;;40.25;;
16626;SDS011;8427;52.204;7.202;2023-03-01T11:48:06;46.70;;;41.70;;
16626;SDS011;8427;52.204;7.202;2023-03-01T11:50:44;44.30;;;40.50;;
16626;SDS011;8427;52.204;7.202;2023-03-01T11:53:20;44.35;;;40.45;;
16626;SDS011;8427;52.204;7.202;2023-03-01T11:56:00;44.20;;;40.50;;
16626;SDS011;8427;52.204;7.202;2023-03-01T11:58:43;45.38;;;41.00;;
16626;SDS011;8427;52.204;7.202;2023-03-01T12:01:24;43.60;;;40.10;;
16626;SDS011;8427;52.204;7.202;2023-03-01T12:04:08;43.77;;;40.20;;
16626;SDS011;8427;52.204;7.202;2023-03-01T12:06:52;44.50;;;40.60;;
16626;SDS011;8427;52.204;7.202;2023-03-01T12:09:33;46.22;;;41.55;;
16626;SDS011;8427;52.204;7.202;2023-03-01T12:12:25;45.80;;;41.20;;
16626;SDS011;8427;52.204;7.202;2023-03-01T12:18:00;44.00;;;40.30;;
16626;SDS011;8427;52.204;7.202;2023-03-01T12:20:40;44.03;;;40.42;;
16626;SDS011;8427;52.204;7.202;2023-03-01T12:23:29;43.20;;;39.90;;
16626;SDS011;8427;52.204;7.202;2023-03-01T12:26:06;45.00;;;40.90;;
16626;SDS011;8427;52.204;7.202;2023-03-01T12:31:59;44.40;;;40.60;;
16626;SDS011;8427;52.204;7.202;2023-03-01T12:34:41;44.53;;;40.78;;
16626;SDS011;8427;52.204;7.202;2023-03-01T12:37:25;44.30;;;40.60;;
16626;SDS011;8427;52.204;7.202;2023-03-01T12:40:09;44.90;;;40.90;;
16626;SDS011;8427;52.204;7.202;2023-03-01T12:42:51;42.90;;;39.70;;
16626;SDS011;8427;52.204;7.202;2023-03-01T12:45:32;44.03;;;40.42;;
16626;SDS011;8427;52.204;7.202;2023-03-01T12:48:17;44.20;;;40.60;;
16626;SDS011;8427;52.204;7.202;2023-03-01T12:50:59;45.10;;;41.10;;
16626;SDS011;8427;52.204;7.202;2023-03-01T12:53:31;43.95;;;40.45;;
16626;SDS011;8427;52.204;7.202;2023-03-01T12:56:05;43.90;;;40.40;;
16626;SDS011;8427;52.204;7.202;2023-03-01T12:58:38;47.92;;;42.35;;
16626;SDS011;8427;52.204;7.202;2023-03-01T13:01:19;44.45;;;40.75;;
16626;SDS011;8427;52.204;7.202;2023-03-01T13:03:56;47.88;;;42.40;;
16626;SDS011;8427;52.204;7.202;2023-03-01T13:06:39;44.60;;;40.90;;
16626;SDS011;8427;52.204;7.202;2023-03-01T13:09:14;48.30;;;42.60;;
16626;SDS011;8427;52.204;7.202;2023-03-01T13:11:52;44.95;;;41.05;;
16626;SDS011;8427;52.204;7.202;2023-03-01T13:14:37;44.90;;;41.10;;
16626;SDS011;8427;52.204;7.202;2023-03-01T13:20:16;45.60;;;41.50;;
16626;SDS011;8427;52.204;7.202;2023-03-01T13:22:46;45.00;;;41.10;;
16626;SDS011;8427;52.204;7.202;2023-03-01T13:25:26;44.38;;;40.70;;
16626;SDS011;8427;52.204;7.202;2023-03-01T13:37:09;45.42;;;41.40;;
16626;SDS011;8427;52.204;7.202;2023-03-01T13:39:39;46.07;;;41.67;;
16626;SDS011;8427;52.204;7.202;2023-03-01T13:45:12;44.20;;;40.70;;
16626;SDS011;8427;52.204;7.202;2023-03-01T13:47:50;46.60;;;41.80;;
16626;SDS011;8427;52.204;7.202;2023-03-01T13:50:25;45.90;;;41.50;;
16626;SDS011;8427;52.204;7.202;2023-03-01T13:52:57;45.25;;;41.28;;
16626;SDS011;8427;52.204;7.202;2023-03-01T13:55:30;45.88;;;41.58;;
16626;SDS011;8427;52.204;7.202;2023-03-01T13:58:11;46.17;;;41.70;;
16626;SDS011;8427;52.204;7.202;2023-03-01T14:00:45;45.73;;;41.53;;
16626;SDS011;8427;52.204;7.202;2023-03-01T14:03:14;44.65;;;41.00;;
16626;SDS011;8427;52.204;7.202;2023-03-01T14:05:57;45.20;;;41.30;;
16626;SDS011;8427;52.204;7.202;2023-03-01T14:08:40;46.50;;;42.00;;
16626;SDS011;8427;52.204;7.202;2023-03-01T14:14:34;46.53;;;41.97;;
16626;SDS011;8427;52.204;7.202;2023-03-01T14:17:26;45.72;;;41.53;;
16626;SDS011;8427;52.204;7.202;2023-03-01T14:20:09;44.40;;;40.85;;
16626;SDS011;8427;52.204;7.202;2023-03-01T14:22:43;53.08;;;43.40;;
16626;SDS011;8427;52.204;7.202;2023-03-01T14:25:17;46.22;;;41.80;;
16626;SDS011;8427;52.204;7.202;2023-03-01T14:27:54;45.05;;;41.20;;
16626;SDS011;8427;52.204;7.202;2023-03-01T14:30:31;46.92;;;42.22;;
16626;SDS011;8427;52.204;7.202;2023-03-01T14:33:02;45.30;;;41.30;;
16626;SDS011;8427;52.204;7.202;2023-03-01T14:35:33;46.80;;;42.20;;
16626;SDS011;8427;52.204;7.202;2023-03-01T14:38:04;45.50;;;41.35;;
16626;SDS011;8427;52.204;7.202;2023-03-01T14:40:32;47.10;;;42.20;;
16626;SDS011;8427;52.204;7.202;2023-03-01T14:43:08;46.20;;;41.67;;
16626;SDS011;8427;52.204;7.202;2023-03-01T14:45:38;45.10;;;41.10;;
16626;SDS011;8427;52.204;7.202;2023-03-01T14:48:06;44.40;;;40.80;;
16626;SDS011;8427;52.204;7.202;2023-03-01T14:50:35;46.60;;;42.00;;
16626;SDS011;8427;52.204;7.202;2023-03-01T14:53:14;45.22;;;41.25;;
16626;SDS011;8427;52.204;7.202;2023-03-01T14:55:46;45.13;;;41.22;;
16626;SDS011;8427;52.204;7.202;2023-03-01T14:58:17;45.03;;;41.10;;
16626;SDS011;8427;52.204;7.202;2023-03-01T15:00:48;45.50;;;41.40;;
16626;SDS011;8427;52.204;7.202;2023-03-01T15:03:20;47.33;;;42.28;;
16626;SDS011;8427;52.204;7.202;2023-03-01T15:05:53;44.72;;;40.92;;
16626;SDS011;8427;52.204;7.202;2023-03-01T15:08:22;48.67;;;42.60;;
16626;SDS011;8427;52.204;7.202;2023-03-01T15:10:57;45.17;;;41.28;;
16626;SDS011;8427;52.204;7.202;2023-03-01T15:13:33;46.00;;;41.70;;
16626;SDS011;8427;52.204;7.202;2023-03-01T15:16:03;44.70;;;40.90;;
16626;SDS011;8427;52.204;7.202;2023-03-01T15:18:34;45.80;;;41.50;;
16626;SDS011;8427;52.204;7.202;2023-03-01T15:21:06;46.05;;;41.65;;
16626;SDS011;8427;52.204;7.202;2023-03-01T15:23:38;46.10;;;41.70;;
16626;SDS011;8427;52.204;7.202;2023-03-01T15:26:16;46.05;;;41.53;;
16626;SDS011;8427;52.204;7.202;2023-03-01T15:28:51;45.75;;;41.55;;
16626;SDS011;8427;52.204;7.202;2023-03-01T15:31:24;45.78;;;41.47;;